sensor_id;sensor_type;location;lat;lon;timestamp;temperature;humidity
17092;DHT22;8661;45.700;4.880;2023-08-06T00:00:57;20.00;90.10
17092;DHT22;8661;45.700;4.880;2023-08-06T00:03:23;20.00;89.70
17092;DHT22;8661;45.700;4.880;2023-08-06T00:05:50;20.00;89.90
17092;DHT22;8661;45.700;4.880;2023-08-06T00:08:17;20.00;90.00
17092;DHT22;8661;45.700;4.880;2023-08-06T00:10:44;19.90;90.00
17092;DHT22;8661;45.700;4.880;2023-08-06T00:13:12;20.00;90.10
17092;DHT22;8661;45.700;4.880;2023-08-06T00:15:39;20.00;90.10
17092;DHT22;8661;45.700;4.880;2023-08-06T00:18:06;20.00;90.00
17092;DHT22;8661;45.700;4.880;2023-08-06T00:20:33;20.00;90.10
17092;DHT22;8661;45.700;4.880;2023-08-06T00:22:59;19.90;90.10
17092;DHT22;8661;45.700;4.880;2023-08-06T00:25:27;19.90;90.20
17092;DHT22;8661;45.700;4.880;2023-08-06T00:27:53;19.90;90.20
17092;DHT22;8661;45.700;4.880;2023-08-06T00:30:23;19.90;90.20
17092;DHT22;8661;45.700;4.880;2023-08-06T00:32:50;19.90;90.30
17092;DHT22;8661;45.700;4.880;2023-08-06T00:35:17;19.80;90.40
17092;DHT22;8661;45.700;4.880;2023-08-06T00:37:43;19.80;90.40
17092;DHT22;8661;45.700;4.880;2023-08-06T00:40:10;19.80;90.40
17092;DHT22;8661;45.700;4.880;2023-08-06T00:42:37;19.80;90.70
17092;DHT22;8661;45.700;4.880;2023-08-06T00:45:05;19.80;90.50
17092;DHT22;8661;45.700;4.880;2023-08-06T00:47:33;19.80;90.50
17092;DHT22;8661;45.700;4.880;2023-08-06T00:50:00;19.80;90.50
17092;DHT22;8661;45.700;4.880;2023-08-06T00:52:27;19.80;90.50
17092;DHT22;8661;45.700;4.880;2023-08-06T00:54:54;19.70;90.50
17092;DHT22;8661;45.700;4.880;2023-08-06T00:57:24;19.70;90.50
17092;DHT22;8661;45.700;4.880;2023-08-06T00:59:51;19.60;90.60
17092;DHT22;8661;45.700;4.880;2023-08-06T01:02:19;19.60;90.60
17092;DHT22;8661;45.700;4.880;2023-08-06T01:04:47;19.60;90.70
17092;DHT22;8661;45.700;4.880;2023-08-06T01:07:21;19.50;90.70
17092;DHT22;8661;45.700;4.880;2023-08-06T01:10:00;19.50;90.90
17092;DHT22;8661;45.700;4.880;2023-08-06T01:12:46;19.50;90.80
17092;DHT22;8661;45.700;4.880;2023-08-06T01:15:19;19.40;90.80
17092;DHT22;8661;45.700;4.880;2023-08-06T01:17:48;19.50;90.90
17092;DHT22;8661;45.700;4.880;2023-08-06T01:20:16;19.40;90.90
17092;DHT22;8661;45.700;4.880;2023-08-06T01:22:45;19.30;91.00
17092;DHT22;8661;45.700;4.880;2023-08-06T01:25:14;19.30;91.20
17092;DHT22;8661;45.700;4.880;2023-08-06T01:27:46;19.20;91.20
17092;DHT22;8661;45.700;4.880;2023-08-06T01:30:16;19.20;91.30
17092;DHT22;8661;45.700;4.880;2023-08-06T01:32:46;19.10;91.40
17092;DHT22;8661;45.700;4.880;2023-08-06T01:35:15;19.00;91.40
17092;DHT22;8661;45.700;4.880;2023-08-06T01:37:46;19.00;91.70
17092;DHT22;8661;45.700;4.880;2023-08-06T01:40:13;18.90;91.70
17092;DHT22;8661;45.700;4.880;2023-08-06T01:42:41;18.90;91.60
17092;DHT22;8661;45.700;4.880;2023-08-06T01:45:08;18.80;91.70
17092;DHT22;8661;45.700;4.880;2023-08-06T01:47:36;18.80;91.80
17092;DHT22;8661;45.700;4.880;2023-08-06T01:50:03;18.80;91.90
17092;DHT22;8661;45.700;4.880;2023-08-06T01:52:30;18.70;92.00
17092;DHT22;8661;45.700;4.880;2023-08-06T01:54:58;18.70;92.00
17092;DHT22;8661;45.700;4.880;2023-08-06T01:57:25;18.60;92.00
17092;DHT22;8661;45.700;4.880;2023-08-06T01:59:52;18.60;92.00
17092;DHT22;8661;45.700;4.880;2023-08-06T02:02:19;18.50;92.00
17092;DHT22;8661;45.700;4.880;2023-08-06T02:04:46;18.50;92.00
17092;DHT22;8661;45.700;4.880;2023-08-06T02:07:13;18.50;92.10
17092;DHT22;8661;45.700;4.880;2023-08-06T02:09:40;18.50;92.20
17092;DHT22;8661;45.700;4.880;2023-08-06T02:12:08;18.50;92.30
17092;DHT22;8661;45.700;4.880;2023-08-06T02:14:35;18.50;92.30
17092;DHT22;8661;45.700;4.880;2023-08-06T02:17:02;18.50;92.40
17092;DHT22;8661;45.700;4.880;2023-08-06T02:19:29;18.50;92.30
17092;DHT22;8661;45.700;4.880;2023-08-06T02:21:56;18.50;92.40
17092;DHT22;8661;45.700;4.880;2023-08-06T02:24:23;18.40;92.40
17092;DHT22;8661;45.700;4.880;2023-08-06T02:26:50;18.40;92.50
17092;DHT22;8661;45.700;4.880;2023-08-06T02:29:22;18.40;92.60
17092;DHT22;8661;45.700;4.880;2023-08-06T02:31:49;18.30;92.60
17092;DHT22;8661;45.700;4.880;2023-08-06T02:34:15;18.30;92.70
17092;DHT22;8661;45.700;4.880;2023-08-06T02:36:42;18.30;92.70
17092;DHT22;8661;45.700;4.880;2023-08-06T02:39:09;18.30;92.70
17092;DHT22;8661;45.700;4.880;2023-08-06T02:41:36;18.20;92.80
17092;DHT22;8661;45.700;4.880;2023-08-06T02:44:06;18.20;92.80
17092;DHT22;8661;45.700;4.880;2023-08-06T02:46:34;18.10;92.80
17092;DHT22;8661;45.700;4.880;2023-08-06T02:49:01;18.10;92.80
17092;DHT22;8661;45.700;4.880;2023-08-06T02:51:27;18.00;92.90
17092;DHT22;8661;45.700;4.880;2023-08-06T02:53:54;18.00;93.00
17092;DHT22;8661;45.700;4.880;2023-08-06T02:56:21;17.90;93.00
17092;DHT22;8661;45.700;4.880;2023-08-06T02:58:48;17.90;93.10
17092;DHT22;8661;45.700;4.880;2023-08-06T03:01:15;17.90;93.30
17092;DHT22;8661;45.700;4.880;2023-08-06T03:03:43;17.80;93.30
17092;DHT22;8661;45.700;4.880;2023-08-06T03:06:10;17.80;93.30
17092;DHT22;8661;45.700;4.880;2023-08-06T03:08:37;17.70;93.30
17092;DHT22;8661;45.700;4.880;2023-08-06T03:11:03;17.70;93.50
17092;DHT22;8661;45.700;4.880;2023-08-06T03:13:30;17.70;93.60
17092;DHT22;8661;45.700;4.880;2023-08-06T03:15:57;17.60;93.60
17092;DHT22;8661;45.700;4.880;2023-08-06T03:18:25;17.60;93.60
17092;DHT22;8661;45.700;4.880;2023-08-06T03:20:53;17.60;93.70
17092;DHT22;8661;45.700;4.880;2023-08-06T03:23:21;17.70;93.60
17092;DHT22;8661;45.700;4.880;2023-08-06T03:25:47;17.70;93.50
17092;DHT22;8661;45.700;4.880;2023-08-06T03:28:14;17.70;93.50
17092;DHT22;8661;45.700;4.880;2023-08-06T03:30:42;17.70;93.40
17092;DHT22;8661;45.700;4.880;2023-08-06T03:33:09;17.70;93.40
17092;DHT22;8661;45.700;4.880;2023-08-06T03:35:35;17.70;93.50
17092;DHT22;8661;45.700;4.880;2023-08-06T03:38:04;17.80;93.50
17092;DHT22;8661;45.700;4.880;2023-08-06T03:40:30;17.80;93.40
17092;DHT22;8661;45.700;4.880;2023-08-06T03:42:57;17.80;93.30
17092;DHT22;8661;45.700;4.880;2023-08-06T03:45:24;17.80;93.20
17092;DHT22;8661;45.700;4.880;2023-08-06T03:47:51;17.80;93.10
17092;DHT22;8661;45.700;4.880;2023-08-06T03:50:18;17.80;93.00
17092;DHT22;8661;45.700;4.880;2023-08-06T03:52:45;17.80;93.00
17092;DHT22;8661;45.700;4.880;2023-08-06T03:55:13;17.80;93.00
17092;DHT22;8661;45.700;4.880;2023-08-06T03:57:40;17.80;92.90
17092;DHT22;8661;45.700;4.880;2023-08-06T04:00:08;17.80;92.90
17092;DHT22;8661;45.700;4.880;2023-08-06T04:02:35;17.70;93.00
17092;DHT22;8661;45.700;4.880;2023-08-06T04:05:01;17.70;92.90
17092;DHT22;8661;45.700;4.880;2023-08-06T04:07:28;17.70;92.90
17092;DHT22;8661;45.700;4.880;2023-08-06T04:09:57;17.70;92.80
17092;DHT22;8661;45.700;4.880;2023-08-06T04:12:26;17.80;92.90
17092;DHT22;8661;45.700;4.880;2023-08-06T04:14:53;17.80;92.80
17092;DHT22;8661;45.700;4.880;2023-08-06T04:17:20;17.80;93.20
17092;DHT22;8661;45.700;4.880;2023-08-06T04:19:49;17.80;92.80
17092;DHT22;8661;45.700;4.880;2023-08-06T04:22:16;17.80;92.80
17092;DHT22;8661;45.700;4.880;2023-08-06T04:24:43;17.80;92.80
17092;DHT22;8661;45.700;4.880;2023-08-06T04:27:11;17.90;92.80
17092;DHT22;8661;45.700;4.880;2023-08-06T04:29:39;17.80;93.30
17092;DHT22;8661;45.700;4.880;2023-08-06T04:32:08;17.70;94.40
17092;DHT22;8661;45.700;4.880;2023-08-06T04:34:37;17.50;95.50
17092;DHT22;8661;45.700;4.880;2023-08-06T04:37:04;17.40;96.30
17092;DHT22;8661;45.700;4.880;2023-08-06T04:39:31;17.30;96.70
17092;DHT22;8661;45.700;4.880;2023-08-06T04:41:58;17.20;96.30
17092;DHT22;8661;45.700;4.880;2023-08-06T04:44:25;17.00;96.40
17092;DHT22;8661;45.700;4.880;2023-08-06T04:46:53;17.00;96.20
17092;DHT22;8661;45.700;4.880;2023-08-06T04:49:20;17.00;96.50
17092;DHT22;8661;45.700;4.880;2023-08-06T04:51:47;16.90;96.00
17092;DHT22;8661;45.700;4.880;2023-08-06T04:54:13;17.00;95.80
17092;DHT22;8661;45.700;4.880;2023-08-06T04:56:40;16.90;96.10
17092;DHT22;8661;45.700;4.880;2023-08-06T04:59:07;17.00;95.80
17092;DHT22;8661;45.700;4.880;2023-08-06T05:01:34;16.90;95.80
17092;DHT22;8661;45.700;4.880;2023-08-06T05:04:02;16.80;95.70
17092;DHT22;8661;45.700;4.880;2023-08-06T05:06:29;16.80;95.90
17092;DHT22;8661;45.700;4.880;2023-08-06T05:08:56;16.80;95.80
17092;DHT22;8661;45.700;4.880;2023-08-06T05:11:23;16.80;95.70
17092;DHT22;8661;45.700;4.880;2023-08-06T05:13:50;16.80;95.70
17092;DHT22;8661;45.700;4.880;2023-08-06T05:16:17;16.80;95.70
17092;DHT22;8661;45.700;4.880;2023-08-06T05:18:44;16.80;95.60
17092;DHT22;8661;45.700;4.880;2023-08-06T05:21:12;16.80;95.70
17092;DHT22;8661;45.700;4.880;2023-08-06T05:23:39;16.80;95.80
17092;DHT22;8661;45.700;4.880;2023-08-06T05:26:06;16.80;95.80
17092;DHT22;8661;45.700;4.880;2023-08-06T05:28:36;16.80;96.00
17092;DHT22;8661;45.700;4.880;2023-08-06T05:31:05;16.90;96.00
17092;DHT22;8661;45.700;4.880;2023-08-06T05:33:32;17.00;95.80
17092;DHT22;8661;45.700;4.880;2023-08-06T05:35:59;17.20;95.70
17092;DHT22;8661;45.700;4.880;2023-08-06T05:38:27;17.40;95.60
17092;DHT22;8661;45.700;4.880;2023-08-06T05:40:54;17.50;95.20
17092;DHT22;8661;45.700;4.880;2023-08-06T05:43:21;17.80;95.00
17092;DHT22;8661;45.700;4.880;2023-08-06T05:45:49;18.00;94.50
17092;DHT22;8661;45.700;4.880;2023-08-06T05:48:17;18.20;94.10
17092;DHT22;8661;45.700;4.880;2023-08-06T05:50:44;18.40;93.80
17092;DHT22;8661;45.700;4.880;2023-08-06T05:53:10;18.60;93.50
17092;DHT22;8661;45.700;4.880;2023-08-06T05:55:40;18.70;93.10
17092;DHT22;8661;45.700;4.880;2023-08-06T05:58:06;18.80;92.90
17092;DHT22;8661;45.700;4.880;2023-08-06T06:00:33;18.70;93.10
17092;DHT22;8661;45.700;4.880;2023-08-06T06:03:00;18.60;93.30
17092;DHT22;8661;45.700;4.880;2023-08-06T06:05:28;18.60;93.70
17092;DHT22;8661;45.700;4.880;2023-08-06T06:07:55;18.50;93.20
17092;DHT22;8661;45.700;4.880;2023-08-06T06:10:22;18.60;93.30
17092;DHT22;8661;45.700;4.880;2023-08-06T06:12:50;18.60;93.10
17092;DHT22;8661;45.700;4.880;2023-08-06T06:15:17;19.20;92.90
17092;DHT22;8661;45.700;4.880;2023-08-06T06:17:43;19.70;92.50
17092;DHT22;8661;45.700;4.880;2023-08-06T06:20:10;19.90;91.50
17092;DHT22;8661;45.700;4.880;2023-08-06T06:22:37;20.10;91.10
17092;DHT22;8661;45.700;4.880;2023-08-06T06:25:05;20.10;90.80
17092;DHT22;8661;45.700;4.880;2023-08-06T06:27:32;20.00;90.70
17092;DHT22;8661;45.700;4.880;2023-08-06T06:30:01;19.70;90.80
17092;DHT22;8661;45.700;4.880;2023-08-06T06:32:28;19.40;91.00
17092;DHT22;8661;45.700;4.880;2023-08-06T06:34:55;19.10;91.50
17092;DHT22;8661;45.700;4.880;2023-08-06T06:37:22;19.20;91.70
17092;DHT22;8661;45.700;4.880;2023-08-06T06:39:48;19.10;91.40
17092;DHT22;8661;45.700;4.880;2023-08-06T06:42:15;19.10;91.60
17092;DHT22;8661;45.700;4.880;2023-08-06T06:44:42;19.20;91.90
17092;DHT22;8661;45.700;4.880;2023-08-06T06:47:10;19.40;91.30
17092;DHT22;8661;45.700;4.880;2023-08-06T06:49:37;19.40;91.30
17092;DHT22;8661;45.700;4.880;2023-08-06T06:52:05;19.50;91.20
17092;DHT22;8661;45.700;4.880;2023-08-06T06:54:32;19.60;90.90
17092;DHT22;8661;45.700;4.880;2023-08-06T06:56:59;19.70;90.60
17092;DHT22;8661;45.700;4.880;2023-08-06T06:59:26;19.80;90.50
17092;DHT22;8661;45.700;4.880;2023-08-06T07:01:52;20.00;90.50
17092;DHT22;8661;45.700;4.880;2023-08-06T07:04:21;20.10;90.30
17092;DHT22;8661;45.700;4.880;2023-08-06T07:06:47;20.10;90.20
17092;DHT22;8661;45.700;4.880;2023-08-06T07:09:14;20.20;89.80
17092;DHT22;8661;45.700;4.880;2023-08-06T07:11:41;20.10;89.90
17092;DHT22;8661;45.700;4.880;2023-08-06T07:14:09;20.20;90.20
17092;DHT22;8661;45.700;4.880;2023-08-06T07:16:36;20.40;88.70
17092;DHT22;8661;45.700;4.880;2023-08-06T07:19:03;20.50;88.30
17092;DHT22;8661;45.700;4.880;2023-08-06T07:21:32;20.70;88.00
17092;DHT22;8661;45.700;4.880;2023-08-06T07:23:59;20.90;87.30
17092;DHT22;8661;45.700;4.880;2023-08-06T07:26:26;21.10;86.70
17092;DHT22;8661;45.700;4.880;2023-08-06T07:28:52;21.60;85.80
17092;DHT22;8661;45.700;4.880;2023-08-06T07:31:19;22.20;84.20
17092;DHT22;8661;45.700;4.880;2023-08-06T07:33:46;22.40;82.40
17092;DHT22;8661;45.700;4.880;2023-08-06T07:36:14;22.40;82.30
17092;DHT22;8661;45.700;4.880;2023-08-06T07:38:42;22.50;82.20
17092;DHT22;8661;45.700;4.880;2023-08-06T07:41:09;22.60;81.20
17092;DHT22;8661;45.700;4.880;2023-08-06T07:43:36;22.70;81.00
17092;DHT22;8661;45.700;4.880;2023-08-06T07:46:03;22.60;80.40
17092;DHT22;8661;45.700;4.880;2023-08-06T07:48:30;22.60;80.70
17092;DHT22;8661;45.700;4.880;2023-08-06T07:50:57;22.60;80.30
17092;DHT22;8661;45.700;4.880;2023-08-06T07:53:25;22.40;80.20
17092;DHT22;8661;45.700;4.880;2023-08-06T07:55:56;22.40;79.70
17092;DHT22;8661;45.700;4.880;2023-08-06T07:58:24;22.50;79.60
17092;DHT22;8661;45.700;4.880;2023-08-06T08:00:51;22.50;79.50
17092;DHT22;8661;45.700;4.880;2023-08-06T08:03:18;22.40;79.50
17092;DHT22;8661;45.700;4.880;2023-08-06T08:05:45;22.40;79.40
17092;DHT22;8661;45.700;4.880;2023-08-06T08:08:12;22.00;79.50
17092;DHT22;8661;45.700;4.880;2023-08-06T08:10:39;21.90;80.50
17092;DHT22;8661;45.700;4.880;2023-08-06T08:13:07;21.90;80.40
17092;DHT22;8661;45.700;4.880;2023-08-06T08:15:34;21.90;80.50
17092;DHT22;8661;45.700;4.880;2023-08-06T08:18:01;21.70;80.70
17092;DHT22;8661;45.700;4.880;2023-08-06T08:20:28;21.50;81.10
17092;DHT22;8661;45.700;4.880;2023-08-06T08:22:58;21.40;81.80
17092;DHT22;8661;45.700;4.880;2023-08-06T08:25:25;21.40;82.50
17092;DHT22;8661;45.700;4.880;2023-08-06T08:27:53;21.40;82.10
17092;DHT22;8661;45.700;4.880;2023-08-06T08:30:21;21.30;82.70
17092;DHT22;8661;45.700;4.880;2023-08-06T08:32:50;21.30;82.30
17092;DHT22;8661;45.700;4.880;2023-08-06T08:35:17;21.20;83.20
17092;DHT22;8661;45.700;4.880;2023-08-06T08:37:44;20.90;83.90
17092;DHT22;8661;45.700;4.880;2023-08-06T08:40:11;20.90;85.00
17092;DHT22;8661;45.700;4.880;2023-08-06T08:42:38;21.00;85.20
17092;DHT22;8661;45.700;4.880;2023-08-06T08:45:10;21.20;84.90
17092;DHT22;8661;45.700;4.880;2023-08-06T08:47:40;21.00;83.90
17092;DHT22;8661;45.700;4.880;2023-08-06T08:50:09;21.00;83.60
17092;DHT22;8661;45.700;4.880;2023-08-06T08:52:38;21.00;83.80
17092;DHT22;8661;45.700;4.880;2023-08-06T08:55:08;21.30;83.40
17092;DHT22;8661;45.700;4.880;2023-08-06T08:57:35;21.70;82.50
17092;DHT22;8661;45.700;4.880;2023-08-06T09:00:02;22.10;81.20
17092;DHT22;8661;45.700;4.880;2023-08-06T09:02:32;22.40;80.50
17092;DHT22;8661;45.700;4.880;2023-08-06T09:05:01;22.60;78.20
17092;DHT22;8661;45.700;4.880;2023-08-06T09:07:34;22.80;78.30
17092;DHT22;8661;45.700;4.880;2023-08-06T09:10:03;23.00;77.90
17092;DHT22;8661;45.700;4.880;2023-08-06T09:12:31;23.10;77.70
17092;DHT22;8661;45.700;4.880;2023-08-06T09:14:58;23.10;76.80
17092;DHT22;8661;45.700;4.880;2023-08-06T09:17:25;22.50;77.50
17092;DHT22;8661;45.700;4.880;2023-08-06T09:19:54;21.90;79.20
17092;DHT22;8661;45.700;4.880;2023-08-06T09:22:22;22.00;79.80
17092;DHT22;8661;45.700;4.880;2023-08-06T09:24:49;22.60;78.80
17092;DHT22;8661;45.700;4.880;2023-08-06T09:27:16;23.20;78.00
17092;DHT22;8661;45.700;4.880;2023-08-06T09:29:44;23.70;77.00
17092;DHT22;8661;45.700;4.880;2023-08-06T09:32:11;23.60;75.20
17092;DHT22;8661;45.700;4.880;2023-08-06T09:34:39;23.60;74.80
17092;DHT22;8661;45.700;4.880;2023-08-06T09:37:08;23.70;75.00
17092;DHT22;8661;45.700;4.880;2023-08-06T09:39:38;24.50;73.40
17092;DHT22;8661;45.700;4.880;2023-08-06T09:42:05;24.80;71.70
17092;DHT22;8661;45.700;4.880;2023-08-06T09:44:33;24.90;71.30
17092;DHT22;8661;45.700;4.880;2023-08-06T09:47:01;25.50;70.20
17092;DHT22;8661;45.700;4.880;2023-08-06T09:49:39;26.00;68.90
17092;DHT22;8661;45.700;4.880;2023-08-06T09:52:09;26.30;67.80
17092;DHT22;8661;45.700;4.880;2023-08-06T09:54:38;26.30;67.30
17092;DHT22;8661;45.700;4.880;2023-08-06T09:57:06;26.10;67.30
17092;DHT22;8661;45.700;4.880;2023-08-06T09:59:33;26.00;66.90
17092;DHT22;8661;45.700;4.880;2023-08-06T10:02:01;25.70;67.50
17092;DHT22;8661;45.700;4.880;2023-08-06T10:04:29;25.40;67.90
17092;DHT22;8661;45.700;4.880;2023-08-06T10:06:56;25.00;67.70
17092;DHT22;8661;45.700;4.880;2023-08-06T10:09:24;24.10;70.50
17092;DHT22;8661;45.700;4.880;2023-08-06T10:11:53;23.20;71.70
17092;DHT22;8661;45.700;4.880;2023-08-06T10:14:24;23.00;73.60
17092;DHT22;8661;45.700;4.880;2023-08-06T10:16:52;22.80;73.70
17092;DHT22;8661;45.700;4.880;2023-08-06T10:19:20;23.20;73.30
17092;DHT22;8661;45.700;4.880;2023-08-06T10:22:09;23.80;72.40
17092;DHT22;8661;45.700;4.880;2023-08-06T10:24:48;24.30;71.90
17092;DHT22;8661;45.700;4.880;2023-08-06T10:27:21;25.40;69.20
17092;DHT22;8661;45.700;4.880;2023-08-06T10:29:48;26.20;67.50
17092;DHT22;8661;45.700;4.880;2023-08-06T10:32:16;27.20;66.20
17092;DHT22;8661;45.700;4.880;2023-08-06T10:34:54;27.60;64.00
17092;DHT22;8661;45.700;4.880;2023-08-06T10:37:22;27.30;64.50
17092;DHT22;8661;45.700;4.880;2023-08-06T10:39:49;27.90;63.50
17092;DHT22;8661;45.700;4.880;2023-08-06T10:42:22;28.30;62.50
17092;DHT22;8661;45.700;4.880;2023-08-06T10:45:11;28.90;61.60
17092;DHT22;8661;45.700;4.880;2023-08-06T10:47:38;29.30;59.70
17092;DHT22;8661;45.700;4.880;2023-08-06T10:50:06;29.30;59.80
17092;DHT22;8661;45.700;4.880;2023-08-06T10:52:34;29.20;59.20
17092;DHT22;8661;45.700;4.880;2023-08-06T10:55:01;28.90;59.10
17092;DHT22;8661;45.700;4.880;2023-08-06T10:57:29;28.80;59.50
17092;DHT22;8661;45.700;4.880;2023-08-06T10:59:56;28.60;59.20
17092;DHT22;8661;45.700;4.880;2023-08-06T11:02:22;28.50;59.50
17092;DHT22;8661;45.700;4.880;2023-08-06T11:04:49;28.50;60.00
17092;DHT22;8661;45.700;4.880;2023-08-06T11:07:17;28.50;59.60
17092;DHT22;8661;45.700;4.880;2023-08-06T11:09:44;28.50;60.10
17092;DHT22;8661;45.700;4.880;2023-08-06T11:12:11;29.20;59.50
17092;DHT22;8661;45.700;4.880;2023-08-06T11:14:39;29.90;57.40
17092;DHT22;8661;45.700;4.880;2023-08-06T11:17:06;29.90;57.00
17092;DHT22;8661;45.700;4.880;2023-08-06T11:19:33;30.20;56.50
17092;DHT22;8661;45.700;4.880;2023-08-06T11:22:00;30.40;56.10
17092;DHT22;8661;45.700;4.880;2023-08-06T11:24:28;30.30;56.30
17092;DHT22;8661;45.700;4.880;2023-08-06T11:26:54;30.10;56.20
17092;DHT22;8661;45.700;4.880;2023-08-06T11:29:21;30.00;56.40
17092;DHT22;8661;45.700;4.880;2023-08-06T11:31:51;29.80;55.90
17092;DHT22;8661;45.700;4.880;2023-08-06T11:34:17;29.50;56.10
17092;DHT22;8661;45.700;4.880;2023-08-06T11:36:44;30.40;55.80
17092;DHT22;8661;45.700;4.880;2023-08-06T11:39:11;30.90;54.70
17092;DHT22;8661;45.700;4.880;2023-08-06T11:41:38;31.10;54.30
17092;DHT22;8661;45.700;4.880;2023-08-06T11:44:06;30.80;54.20
17092;DHT22;8661;45.700;4.880;2023-08-06T11:46:53;30.40;54.60
17092;DHT22;8661;45.700;4.880;2023-08-06T11:49:37;29.80;54.50
17092;DHT22;8661;45.700;4.880;2023-08-06T11:52:09;29.80;54.60
17092;DHT22;8661;45.700;4.880;2023-08-06T11:54:36;30.00;55.20
17092;DHT22;8661;45.700;4.880;2023-08-06T11:57:05;30.40;54.90
17092;DHT22;8661;45.700;4.880;2023-08-06T11:59:32;30.60;54.50
17092;DHT22;8661;45.700;4.880;2023-08-06T12:02:02;31.40;53.70
17092;DHT22;8661;45.700;4.880;2023-08-06T12:04:31;31.40;53.20
17092;DHT22;8661;45.700;4.880;2023-08-06T12:07:05;31.10;54.20
17092;DHT22;8661;45.700;4.880;2023-08-06T12:09:33;30.30;53.70
17092;DHT22;8661;45.700;4.880;2023-08-06T12:12:02;28.90;56.00
17092;DHT22;8661;45.700;4.880;2023-08-06T12:14:29;28.90;56.40
17092;DHT22;8661;45.700;4.880;2023-08-06T12:16:56;28.70;55.70
17092;DHT22;8661;45.700;4.880;2023-08-06T12:19:25;29.00;55.70
17092;DHT22;8661;45.700;4.880;2023-08-06T12:21:51;29.30;55.70
17092;DHT22;8661;45.700;4.880;2023-08-06T12:24:19;28.30;55.60
17092;DHT22;8661;45.700;4.880;2023-08-06T12:26:46;28.50;56.50
17092;DHT22;8661;45.700;4.880;2023-08-06T12:29:13;29.00;55.80
17092;DHT22;8661;45.700;4.880;2023-08-06T12:31:40;28.60;55.90
17092;DHT22;8661;45.700;4.880;2023-08-06T12:34:07;28.60;56.20
17092;DHT22;8661;45.700;4.880;2023-08-06T12:36:35;28.60;56.00
17092;DHT22;8661;45.700;4.880;2023-08-06T12:39:02;28.30;56.70
17092;DHT22;8661;45.700;4.880;2023-08-06T12:41:29;28.60;56.60
17092;DHT22;8661;45.700;4.880;2023-08-06T12:43:56;29.30;55.90
17092;DHT22;8661;45.700;4.880;2023-08-06T12:46:23;29.50;55.20
17092;DHT22;8661;45.700;4.880;2023-08-06T12:48:49;29.80;55.20
17092;DHT22;8661;45.700;4.880;2023-08-06T12:51:16;30.20;55.10
17092;DHT22;8661;45.700;4.880;2023-08-06T12:53:44;30.20;54.50
17092;DHT22;8661;45.700;4.880;2023-08-06T12:56:11;30.20;55.10
17092;DHT22;8661;45.700;4.880;2023-08-06T12:58:38;30.40;55.00
17092;DHT22;8661;45.700;4.880;2023-08-06T13:01:05;30.60;54.00
17092;DHT22;8661;45.700;4.880;2023-08-06T13:03:32;31.50;53.50
17092;DHT22;8661;45.700;4.880;2023-08-06T13:05:59;32.50;52.10
17092;DHT22;8661;45.700;4.880;2023-08-06T13:08:26;32.70;52.00
17092;DHT22;8661;45.700;4.880;2023-08-06T13:10:54;33.00;51.20
17092;DHT22;8661;45.700;4.880;2023-08-06T13:13:21;32.70;51.00
17092;DHT22;8661;45.700;4.880;2023-08-06T13:15:48;32.60;51.10
17092;DHT22;8661;45.700;4.880;2023-08-06T13:18:15;32.60;50.80
17092;DHT22;8661;45.700;4.880;2023-08-06T13:20:41;31.80;51.50
17092;DHT22;8661;45.700;4.880;2023-08-06T13:23:08;31.60;51.40
17092;DHT22;8661;45.700;4.880;2023-08-06T13:25:35;32.30;51.60
17092;DHT22;8661;45.700;4.880;2023-08-06T13:28:05;32.90;50.60
17092;DHT22;8661;45.700;4.880;2023-08-06T13:30:33;32.50;50.10
17092;DHT22;8661;45.700;4.880;2023-08-06T13:33:01;32.00;50.90
17092;DHT22;8661;45.700;4.880;2023-08-06T13:35:30;31.60;51.50
17092;DHT22;8661;45.700;4.880;2023-08-06T13:37:56;31.10;51.90
17092;DHT22;8661;45.700;4.880;2023-08-06T13:40:22;30.60;52.70
17092;DHT22;8661;45.700;4.880;2023-08-06T13:42:49;30.00;53.40
17092;DHT22;8661;45.700;4.880;2023-08-06T13:45:17;29.60;54.90
17092;DHT22;8661;45.700;4.880;2023-08-06T13:47:44;29.70;53.60
17092;DHT22;8661;45.700;4.880;2023-08-06T13:50:11;29.60;54.00
17092;DHT22;8661;45.700;4.880;2023-08-06T13:52:39;29.00;55.10
17092;DHT22;8661;45.700;4.880;2023-08-06T13:55:06;29.30;55.60
17092;DHT22;8661;45.700;4.880;2023-08-06T13:57:34;30.10;55.50
17092;DHT22;8661;45.700;4.880;2023-08-06T14:00:01;30.80;54.00
17092;DHT22;8661;45.700;4.880;2023-08-06T14:02:30;31.10;52.90
17092;DHT22;8661;45.700;4.880;2023-08-06T14:04:56;31.50;53.60
17092;DHT22;8661;45.700;4.880;2023-08-06T14:07:23;32.30;52.30
17092;DHT22;8661;45.700;4.880;2023-08-06T14:09:50;32.40;52.30
17092;DHT22;8661;45.700;4.880;2023-08-06T14:12:17;32.50;51.60
17092;DHT22;8661;45.700;4.880;2023-08-06T14:14:44;31.90;51.40
17092;DHT22;8661;45.700;4.880;2023-08-06T14:17:11;31.70;51.80
17092;DHT22;8661;45.700;4.880;2023-08-06T14:19:39;31.50;51.40
17092;DHT22;8661;45.700;4.880;2023-08-06T14:22:06;31.40;51.90
17092;DHT22;8661;45.700;4.880;2023-08-06T14:24:33;32.60;50.70
17092;DHT22;8661;45.700;4.880;2023-08-06T14:26:59;32.80;49.80
17092;DHT22;8661;45.700;4.880;2023-08-06T14:29:26;31.90;50.80
17092;DHT22;8661;45.700;4.880;2023-08-06T14:31:53;31.20;50.90
17092;DHT22;8661;45.700;4.880;2023-08-06T14:34:20;31.60;50.80
17092;DHT22;8661;45.700;4.880;2023-08-06T14:36:48;32.10;51.40
17092;DHT22;8661;45.700;4.880;2023-08-06T14:39:15;31.70;50.50
17092;DHT22;8661;45.700;4.880;2023-08-06T14:41:42;31.10;51.30
17092;DHT22;8661;45.700;4.880;2023-08-06T14:44:09;30.80;52.30
17092;DHT22;8661;45.700;4.880;2023-08-06T14:46:37;30.40;52.50
17092;DHT22;8661;45.700;4.880;2023-08-06T14:49:04;29.90;52.80
17092;DHT22;8661;45.700;4.880;2023-08-06T14:51:30;29.40;53.90
17092;DHT22;8661;45.700;4.880;2023-08-06T14:53:59;28.90;54.40
17092;DHT22;8661;45.700;4.880;2023-08-06T14:56:25;28.40;54.90
17092;DHT22;8661;45.700;4.880;2023-08-06T14:58:52;28.00;54.90
17092;DHT22;8661;45.700;4.880;2023-08-06T15:01:19;27.60;55.60
17092;DHT22;8661;45.700;4.880;2023-08-06T15:03:46;27.30;56.10
17092;DHT22;8661;45.700;4.880;2023-08-06T15:06:13;27.30;56.70
17092;DHT22;8661;45.700;4.880;2023-08-06T15:08:40;27.30;56.80
17092;DHT22;8661;45.700;4.880;2023-08-06T15:11:10;27.40;56.40
17092;DHT22;8661;45.700;4.880;2023-08-06T15:13:37;27.20;56.60
17092;DHT22;8661;45.700;4.880;2023-08-06T15:16:04;27.10;56.40
17092;DHT22;8661;45.700;4.880;2023-08-06T15:18:31;26.80;56.50
17092;DHT22;8661;45.700;4.880;2023-08-06T15:20:58;26.70;56.70
17092;DHT22;8661;45.700;4.880;2023-08-06T15:23:25;26.60;57.20
17092;DHT22;8661;45.700;4.880;2023-08-06T15:25:52;26.70;57.30
17092;DHT22;8661;45.700;4.880;2023-08-06T15:28:20;26.70;57.00
17092;DHT22;8661;45.700;4.880;2023-08-06T15:30:49;26.70;57.40
17092;DHT22;8661;45.700;4.880;2023-08-06T15:33:17;26.40;57.20
17092;DHT22;8661;45.700;4.880;2023-08-06T15:35:44;26.10;57.70
17092;DHT22;8661;45.700;4.880;2023-08-06T15:38:10;26.00;57.80
17092;DHT22;8661;45.700;4.880;2023-08-06T15:40:37;25.90;58.10
17092;DHT22;8661;45.700;4.880;2023-08-06T15:43:04;25.60;58.00
17092;DHT22;8661;45.700;4.880;2023-08-06T15:45:33;25.50;58.40
17092;DHT22;8661;45.700;4.880;2023-08-06T15:48:00;25.10;58.60